createdAt,value
2018-09-30T00:01:01.578Z,12.10
2018-09-30T00:03:30.063Z,12.10
2018-09-30T00:05:58.720Z,12.10
2018-09-30T00:08:27.323Z,12.10
2018-09-30T00:10:55.990Z,12.10
2018-09-30T00:13:24.539Z,12.00
2018-09-30T00:15:53.053Z,12.00
2018-09-30T00:18:21.762Z,12.00
2018-09-30T00:20:50.443Z,12.00
2018-09-30T00:23:19.016Z,12.00
2018-09-30T00:25:52.848Z,11.90
2018-09-30T00:28:21.376Z,11.90
2018-09-30T00:30:49.896Z,11.90
2018-09-30T00:33:18.438Z,11.90
2018-09-30T00:35:47.039Z,11.80
2018-09-30T00:38:16.642Z,11.80
2018-09-30T00:40:45.231Z,11.80
2018-09-30T00:43:13.771Z,11.80
2018-09-30T00:45:42.269Z,11.80
2018-09-30T00:48:10.933Z,11.80
2018-09-30T00:50:39.507Z,11.90
2018-09-30T00:53:08.031Z,11.90
2018-09-30T00:55:36.727Z,11.80
2018-09-30T00:58:05.426Z,11.80
2018-09-30T01:00:34.022Z,11.90
2018-09-30T01:03:03.143Z,11.90
2018-09-30T01:05:32.836Z,11.90
2018-09-30T01:08:02.111Z,11.90
2018-09-30T01:10:31.264Z,11.90
2018-09-30T01:13:05.505Z,12.00
2018-09-30T01:15:34.399Z,12.00
2018-09-30T01:18:03.541Z,12.00
2018-09-30T01:20:33.315Z,12.00
2018-09-30T01:23:01.870Z,12.00
2018-09-30T01:25:30.456Z,12.00
2018-09-30T01:27:58.946Z,12.00
2018-09-30T01:30:27.544Z,12.00
2018-09-30T01:32:56.050Z,12.00
2018-09-30T01:35:24.573Z,12.00
2018-09-30T01:37:53.150Z,12.10
2018-09-30T01:40:21.646Z,12.10
2018-09-30T01:42:50.190Z,12.10
2018-09-30T01:45:18.780Z,12.10
2018-09-30T01:47:47.353Z,12.10
2018-09-30T01:50:15.844Z,12.10
2018-09-30T01:52:54.259Z,12.10
2018-09-30T01:55:22.883Z,12.10
2018-09-30T01:57:51.485Z,12.10
2018-09-30T02:00:20.476Z,12.20
2018-09-30T02:02:49.168Z,12.20
2018-09-30T02:05:18.046Z,12.20
2018-09-30T02:07:47.563Z,12.20
2018-09-30T02:10:16.587Z,12.20
2018-09-30T02:12:45.062Z,12.10
2018-09-30T02:15:13.658Z,12.20
2018-09-30T02:17:42.288Z,12.20
2018-09-30T02:20:10.988Z,12.20
2018-09-30T02:22:39.687Z,12.20
2018-09-30T02:25:08.289Z,12.20
2018-09-30T02:27:36.892Z,12.20
2018-09-30T02:30:06.026Z,12.20
2018-09-30T02:32:34.560Z,12.20
2018-09-30T02:35:03.064Z,12.20
2018-09-30T02:37:31.670Z,12.20
2018-09-30T02:40:01.009Z,12.20
2018-09-30T02:42:29.593Z,12.20
2018-09-30T02:44:58.184Z,12.20
2018-09-30T02:47:27.914Z,12.20
2018-09-30T02:49:56.383Z,12.20
2018-09-30T02:52:24.978Z,12.20
2018-09-30T02:54:53.500Z,12.20
2018-09-30T02:57:22.015Z,12.20
2018-09-30T02:59:50.550Z,12.20
2018-09-30T03:02:19.271Z,12.20
2018-09-30T03:04:47.951Z,12.20
2018-09-30T03:07:21.843Z,12.10
2018-09-30T03:09:50.470Z,12.10
2018-09-30T03:12:18.981Z,12.10
2018-09-30T03:14:47.602Z,12.10
2018-09-30T03:17:16.123Z,12.10
2018-09-30T03:19:44.708Z,12.10
2018-09-30T03:22:13.302Z,12.10
2018-09-30T03:24:41.846Z,12.10
2018-09-30T03:27:10.418Z,12.10
2018-09-30T03:29:38.968Z,12.10
2018-09-30T03:32:07.610Z,12.10
2018-09-30T03:34:36.126Z,12.10
2018-09-30T03:37:05.367Z,12.10
2018-09-30T03:39:33.912Z,12.10
2018-09-30T03:42:02.450Z,12.10
2018-09-30T03:44:31.142Z,12.10
2018-09-30T03:46:59.803Z,12.10
2018-09-30T03:49:28.411Z,12.10
2018-09-30T03:51:56.975Z,12.10
2018-09-30T03:54:25.526Z,12.10
2018-09-30T03:56:54.050Z,12.10
2018-09-30T03:59:22.698Z,12.10
2018-09-30T04:01:51.342Z,12.10
2018-09-30T04:04:19.934Z,12.10
2018-09-30T04:06:48.602Z,12.00
2018-09-30T04:09:17.106Z,12.10
2018-09-30T04:11:45.638Z,12.00
2018-09-30T04:14:14.296Z,12.00
2018-09-30T04:16:42.998Z,12.00
2018-09-30T04:19:11.572Z,12.00
2018-09-30T04:21:40.204Z,12.00
2018-09-30T04:24:10.315Z,12.00
2018-09-30T04:26:40.031Z,12.00
2018-09-30T04:29:08.590Z,12.00
2018-09-30T04:31:37.259Z,12.00
2018-09-30T04:34:05.880Z,12.00
2018-09-30T04:36:35.315Z,12.00
2018-09-30T04:39:05.179Z,11.90
2018-09-30T04:41:33.685Z,12.00
2018-09-30T04:44:02.206Z,12.00
2018-09-30T04:46:30.775Z,12.00
2018-09-30T04:48:59.343Z,12.00
2018-09-30T04:51:27.943Z,12.00
2018-09-30T04:53:56.586Z,12.00
2018-09-30T04:56:25.190Z,12.00
2018-09-30T04:58:53.774Z,12.00
2018-09-30T05:01:22.474Z,12.00
2018-09-30T05:03:51.102Z,12.00
2018-09-30T05:06:19.611Z,12.00
2018-09-30T05:08:48.110Z,12.00
2018-09-30T05:11:16.660Z,12.00
2018-09-30T05:13:45.180Z,12.10
2018-09-30T05:16:13.843Z,12.10
2018-09-30T05:18:42.458Z,12.00
2018-09-30T05:21:11.115Z,12.00
2018-09-30T05:23:39.662Z,12.00
2018-09-30T05:26:08.274Z,12.00
2018-09-30T05:28:36.971Z,12.10
2018-09-30T05:31:05.705Z,12.10
2018-09-30T05:33:34.318Z,12.10
2018-09-30T05:36:03.006Z,12.10
2018-09-30T05:38:31.788Z,12.10
2018-09-30T05:41:00.431Z,12.10
2018-09-30T05:43:28.940Z,12.10
2018-09-30T05:45:57.426Z,12.10
2018-09-30T05:48:26.030Z,12.10
2018-09-30T05:50:54.712Z,12.10
2018-09-30T05:53:23.374Z,12.10
2018-09-30T05:55:51.974Z,12.10
2018-09-30T05:58:20.703Z,12.10
2018-09-30T06:00:49.433Z,12.10
2018-09-30T06:03:18.070Z,12.10
2018-09-30T06:05:46.794Z,12.10
2018-09-30T06:08:15.371Z,12.20
2018-09-30T06:10:44.020Z,12.20
2018-09-30T06:13:12.644Z,12.20
2018-09-30T06:15:41.294Z,12.20
2018-09-30T06:18:09.883Z,12.20
2018-09-30T06:20:38.606Z,12.30
2018-09-30T06:23:07.194Z,12.30
2018-09-30T06:25:35.762Z,12.30
2018-09-30T06:28:04.382Z,12.30
2018-09-30T06:30:32.946Z,12.30
2018-09-30T06:33:01.512Z,12.30
2018-09-30T06:35:30.184Z,12.40
2018-09-30T06:37:58.883Z,12.40
2018-09-30T06:40:27.614Z,12.40
2018-09-30T06:42:56.259Z,12.50
2018-09-30T06:45:24.971Z,12.50
2018-09-30T06:47:53.711Z,12.50
2018-09-30T06:54:09.800Z,12.60
2018-09-30T06:56:52.876Z,12.60
2018-09-30T06:59:47.303Z,12.70
2018-09-30T07:02:29.633Z,12.60
2018-09-30T07:05:04.969Z,12.60
2018-09-30T07:07:56.784Z,12.70
2018-09-30T07:10:29.122Z,12.70
2018-09-30T07:13:14.178Z,12.70
2018-09-30T07:16:15.511Z,12.80
2018-09-30T07:22:03.762Z,12.80
2018-09-30T07:24:35.704Z,12.80
2018-09-30T07:27:09.259Z,12.90
2018-09-30T07:29:56.912Z,12.90
2018-09-30T07:32:38.951Z,12.90
2018-09-30T07:35:08.213Z,13.00
2018-09-30T07:37:37.948Z,13.00
2018-09-30T07:40:06.778Z,13.00
2018-09-30T07:42:35.446Z,13.00
2018-09-30T07:45:04.258Z,13.10
2018-09-30T07:47:32.827Z,13.10
2018-09-30T07:50:01.375Z,13.20
2018-09-30T07:52:29.967Z,13.20
2018-09-30T07:54:58.551Z,13.20
2018-09-30T07:57:27.462Z,13.30
2018-09-30T07:59:56.003Z,13.20
2018-09-30T08:02:24.962Z,13.30
2018-09-30T08:04:53.535Z,13.20
2018-09-30T08:07:22.068Z,13.20
2018-09-30T08:09:50.651Z,13.20
2018-09-30T08:12:19.202Z,13.10
2018-09-30T08:14:47.739Z,13.10
2018-09-30T08:17:16.321Z,13.00
2018-09-30T08:19:44.939Z,13.00
2018-09-30T08:22:13.528Z,12.90
2018-09-30T08:24:42.034Z,12.90
2018-09-30T08:27:10.761Z,12.80
2018-09-30T08:29:39.485Z,12.80
2018-09-30T08:32:08.113Z,12.80
2018-09-30T08:34:37.698Z,12.90
2018-09-30T08:37:06.472Z,13.00
2018-09-30T08:39:35.097Z,13.30
2018-09-30T08:42:03.690Z,13.50
2018-09-30T08:44:32.267Z,13.60
2018-09-30T08:47:00.798Z,13.70
2018-09-30T08:49:29.389Z,13.70
2018-09-30T08:51:57.923Z,13.80
2018-09-30T08:54:26.546Z,13.90
2018-09-30T08:56:56.156Z,13.90
2018-09-30T08:59:24.808Z,13.90
2018-09-30T09:01:54.030Z,14.00
2018-09-30T09:04:22.864Z,14.00
2018-09-30T09:06:51.574Z,14.10
2018-09-30T09:09:20.226Z,14.20
2018-09-30T09:11:48.884Z,14.20
2018-09-30T09:14:17.523Z,14.20
2018-09-30T09:16:46.103Z,14.20
2018-09-30T09:19:14.687Z,14.20
2018-09-30T09:21:43.375Z,14.20
2018-09-30T09:24:13.043Z,14.10
2018-09-30T09:26:41.589Z,14.20
2018-09-30T09:29:10.126Z,14.20
2018-09-30T09:31:38.686Z,14.30
2018-09-30T09:34:07.407Z,14.30
2018-09-30T09:36:36.402Z,14.30
2018-09-30T09:39:08.683Z,14.40
2018-09-30T09:41:39.351Z,14.40
2018-09-30T09:44:08.864Z,14.40
2018-09-30T09:46:37.467Z,14.50
2018-09-30T09:49:06.055Z,14.60
2018-09-30T09:51:34.583Z,14.60
2018-09-30T09:54:03.148Z,14.70
2018-09-30T09:56:31.728Z,14.80
2018-09-30T09:59:00.373Z,14.80
2018-09-30T10:01:28.976Z,14.90
2018-09-30T10:03:57.603Z,14.90
2018-09-30T10:06:26.239Z,14.80
2018-09-30T10:08:54.843Z,14.80
2018-09-30T10:11:24.107Z,15.00
2018-09-30T10:13:52.723Z,15.00
2018-09-30T10:16:21.351Z,15.10
2018-09-30T10:18:49.968Z,15.20
2018-09-30T10:21:18.557Z,15.30
2018-09-30T10:23:47.192Z,15.40
2018-09-30T10:26:15.724Z,15.60
2018-09-30T10:28:44.318Z,15.80
2018-09-30T10:31:12.923Z,15.90
2018-09-30T10:33:41.598Z,16.00
2018-09-30T10:36:10.149Z,16.00
2018-09-30T10:38:38.963Z,16.00
2018-09-30T10:41:07.321Z,15.80
2018-09-30T10:43:35.843Z,15.70
2018-09-30T10:49:01.772Z,15.50
2018-09-30T10:51:30.378Z,15.40
2018-09-30T10:53:59.283Z,15.50
2018-09-30T10:56:27.874Z,15.80
2018-09-30T10:58:56.775Z,15.90
2018-09-30T11:01:25.414Z,15.90
2018-09-30T11:03:53.953Z,15.90
2018-09-30T11:06:22.438Z,16.00
2018-09-30T11:08:50.952Z,16.00
2018-09-30T11:11:19.606Z,16.00
2018-09-30T11:13:48.074Z,16.00
2018-09-30T11:16:16.562Z,16.00
2018-09-30T11:18:45.079Z,16.00
2018-09-30T11:21:13.801Z,16.00
2018-09-30T11:23:42.479Z,16.00
2018-09-30T11:26:11.714Z,15.90
2018-09-30T11:28:40.187Z,15.90
2018-09-30T11:31:08.666Z,15.90
2018-09-30T11:33:37.299Z,15.80
2018-09-30T11:36:05.926Z,15.90
2018-09-30T11:38:34.460Z,15.80
2018-09-30T11:41:03.090Z,15.90
2018-09-30T11:43:31.570Z,15.90
2018-09-30T11:46:00.162Z,15.90
2018-09-30T11:48:28.768Z,15.80
2018-09-30T11:51:13.928Z,15.70
2018-09-30T11:53:50.640Z,15.80
2018-09-30T11:56:37.813Z,15.90
2018-09-30T11:59:18.965Z,15.90
2018-09-30T12:01:49.060Z,15.80
2018-09-30T12:04:17.768Z,15.70
2018-09-30T12:06:58.258Z,15.60
2018-09-30T12:09:34.201Z,15.60
2018-09-30T12:14:59.855Z,15.40
2018-09-30T12:17:28.699Z,15.40
2018-09-30T12:19:57.447Z,15.30
2018-09-30T12:22:27.071Z,15.30
2018-09-30T12:24:55.629Z,15.30
2018-09-30T12:27:24.151Z,15.30
2018-09-30T12:29:52.666Z,15.40
2018-09-30T12:32:21.230Z,15.50
2018-09-30T12:34:49.810Z,15.60
2018-09-30T12:37:19.317Z,15.70
2018-09-30T12:39:47.824Z,15.80
2018-09-30T12:42:16.291Z,15.80
2018-09-30T12:44:44.751Z,15.80
2018-09-30T12:47:13.305Z,15.80
2018-09-30T12:49:41.791Z,15.70
2018-09-30T12:52:10.258Z,15.70
2018-09-30T12:54:38.767Z,15.60
2018-09-30T12:57:07.254Z,15.50
2018-09-30T12:59:35.764Z,15.40
2018-09-30T13:02:06.642Z,15.30
2018-09-30T13:04:35.202Z,15.10
2018-09-30T13:07:03.671Z,15.00
2018-09-30T13:09:32.195Z,14.90
2018-09-30T13:12:00.663Z,14.90
2018-09-30T13:14:29.164Z,14.80
2018-09-30T13:16:57.786Z,14.70
2018-09-30T13:19:26.299Z,14.70
2018-09-30T13:21:54.830Z,14.60
2018-09-30T13:24:23.429Z,14.60
2018-09-30T13:26:52.001Z,14.50
2018-09-30T13:29:20.478Z,14.50
2018-09-30T13:31:49.006Z,14.50
2018-09-30T13:34:17.487Z,14.40
2018-09-30T13:36:45.964Z,14.30
2018-09-30T13:39:14.462Z,14.30
2018-09-30T13:41:42.915Z,14.30
2018-09-30T13:44:11.405Z,14.30
2018-09-30T13:46:39.956Z,14.30
2018-09-30T13:49:08.582Z,14.30
2018-09-30T13:51:43.959Z,14.40
2018-09-30T13:54:12.598Z,14.60
2018-09-30T13:56:41.252Z,14.80
2018-09-30T13:59:09.790Z,14.90
2018-09-30T14:01:38.322Z,15.00
2018-09-30T14:04:07.086Z,15.10
2018-09-30T14:06:35.623Z,15.20
2018-09-30T14:09:05.587Z,15.20
2018-09-30T14:11:34.129Z,15.20
2018-09-30T14:14:02.789Z,15.10
2018-09-30T14:16:31.346Z,15.10
2018-09-30T14:19:00.884Z,15.20
2018-09-30T14:21:29.579Z,15.20
2018-09-30T14:23:58.302Z,15.30
2018-09-30T14:26:26.821Z,15.40
2018-09-30T14:28:55.435Z,15.50
2018-09-30T14:31:24.143Z,15.50
2018-09-30T14:33:52.721Z,15.50
2018-09-30T14:36:21.818Z,15.50
2018-09-30T14:38:50.326Z,15.50
2018-09-30T14:41:18.818Z,15.40
2018-09-30T14:43:47.430Z,15.30
2018-09-30T14:46:15.951Z,15.30
2018-09-30T14:48:44.469Z,15.20
2018-09-30T14:51:12.998Z,15.10
2018-09-30T14:53:41.644Z,15.00
2018-09-30T14:56:10.223Z,15.00
2018-09-30T14:58:38.785Z,14.90
2018-09-30T15:01:07.448Z,14.80
2018-09-30T15:03:36.019Z,14.80
2018-09-30T15:06:04.687Z,14.80
2018-09-30T15:08:33.145Z,14.80
2018-09-30T15:11:01.651Z,14.80
2018-09-30T15:13:30.204Z,14.80
2018-09-30T15:15:58.722Z,14.80
2018-09-30T15:18:27.322Z,14.80
2018-09-30T15:20:55.899Z,14.80
2018-09-30T15:23:24.430Z,14.80
2018-09-30T15:25:52.919Z,14.80
2018-09-30T15:28:21.526Z,14.70
2018-09-30T15:30:50.426Z,14.70
2018-09-30T15:33:19.176Z,14.80
2018-09-30T15:35:52.315Z,14.80
2018-09-30T15:38:20.887Z,14.80
2018-09-30T15:40:49.495Z,14.80
2018-09-30T15:43:33.042Z,14.80
2018-09-30T15:46:04.117Z,14.70
2018-09-30T15:48:35.779Z,14.60
2018-09-30T15:51:06.067Z,14.50
2018-09-30T15:53:34.650Z,14.40
2018-09-30T15:56:03.206Z,14.30
2018-09-30T15:58:31.747Z,14.20
2018-09-30T16:01:00.303Z,14.10
2018-09-30T16:03:29.066Z,14.10
2018-09-30T16:05:57.716Z,14.00
2018-09-30T16:08:26.308Z,13.90
2018-09-30T16:10:54.966Z,13.90
2018-09-30T16:13:23.506Z,13.80
2018-09-30T16:15:52.078Z,13.70
2018-09-30T16:18:20.686Z,13.70
2018-09-30T16:20:49.538Z,13.60
2018-09-30T16:23:18.059Z,13.60
2018-09-30T16:25:46.602Z,13.50
2018-09-30T16:28:15.092Z,13.50
2018-09-30T16:30:43.695Z,13.40
2018-09-30T16:33:12.350Z,13.30
2018-09-30T16:35:41.228Z,13.20
2018-09-30T16:38:09.866Z,13.20
2018-09-30T16:40:38.710Z,13.10
2018-09-30T16:43:07.255Z,13.10
2018-09-30T16:45:35.747Z,13.00
2018-09-30T16:48:04.338Z,13.00
2018-09-30T16:50:33.588Z,13.00
2018-09-30T16:53:02.083Z,13.00
2018-09-30T16:55:30.846Z,12.90
2018-09-30T16:58:00.562Z,12.90
2018-09-30T17:00:29.995Z,12.80
2018-09-30T17:03:01.121Z,12.80
2018-09-30T17:05:31.741Z,12.70
2018-09-30T17:08:01.397Z,12.70
2018-09-30T17:10:30.558Z,12.70
2018-09-30T17:12:59.658Z,12.70
2018-09-30T17:15:28.248Z,12.70
2018-09-30T17:17:56.862Z,12.70
2018-09-30T17:20:25.731Z,12.70
2018-09-30T17:22:54.302Z,12.80
2018-09-30T17:25:23.029Z,12.80
2018-09-30T17:27:51.539Z,12.80
2018-09-30T17:30:20.054Z,12.80
2018-09-30T17:32:48.659Z,12.80
2018-09-30T17:35:17.259Z,12.80
2018-09-30T17:37:45.877Z,12.70
2018-09-30T17:40:16.834Z,12.70
2018-09-30T17:42:45.396Z,12.60
2018-09-30T17:45:13.927Z,12.60
2018-09-30T17:47:42.450Z,12.60
2018-09-30T17:50:10.973Z,12.60
2018-09-30T17:52:39.454Z,12.50
2018-09-30T17:55:08.041Z,12.50
2018-09-30T17:57:36.560Z,12.50
2018-09-30T18:00:05.552Z,12.50
2018-09-30T18:02:34.078Z,12.50
2018-09-30T18:05:02.573Z,12.50
2018-09-30T18:07:31.045Z,12.50
2018-09-30T18:09:59.599Z,12.50
2018-09-30T18:12:28.148Z,12.50
2018-09-30T18:14:56.691Z,12.60
2018-09-30T18:17:25.278Z,12.60
2018-09-30T18:19:53.795Z,12.70
2018-09-30T18:22:22.376Z,12.70
2018-09-30T18:24:51.000Z,12.70
2018-09-30T18:27:19.588Z,12.70
2018-09-30T18:29:48.161Z,12.70
2018-09-30T18:32:16.797Z,12.80
2018-09-30T18:34:45.427Z,12.70
2018-09-30T18:37:16.948Z,12.70
2018-09-30T18:39:45.711Z,12.70
2018-09-30T18:42:14.281Z,12.70
2018-09-30T18:44:42.861Z,12.70
2018-09-30T18:47:11.552Z,12.70
2018-09-30T18:49:40.219Z,12.70
2018-09-30T18:52:09.024Z,12.70
2018-09-30T18:54:37.674Z,12.70
2018-09-30T18:57:06.326Z,12.70
2018-09-30T18:59:34.991Z,12.70
2018-09-30T19:02:03.694Z,12.80
2018-09-30T19:04:32.354Z,12.80
2018-09-30T19:07:00.931Z,12.80
2018-09-30T19:09:29.662Z,12.80
2018-09-30T19:11:58.339Z,12.80
2018-09-30T19:14:26.811Z,12.80
2018-09-30T19:16:55.398Z,12.80
2018-09-30T19:19:23.938Z,12.80
2018-09-30T19:21:52.572Z,12.80
2018-09-30T19:24:21.381Z,12.80
2018-09-30T19:26:49.901Z,12.80
2018-09-30T19:29:18.362Z,12.80
2018-09-30T19:31:46.888Z,12.70
2018-09-30T19:34:15.387Z,12.80
2018-09-30T19:36:43.915Z,12.80
2018-09-30T19:39:12.822Z,12.80
2018-09-30T19:41:41.444Z,12.90
2018-09-30T19:44:09.892Z,12.80
2018-09-30T19:46:38.463Z,12.90
2018-09-30T19:49:07.112Z,12.80
2018-09-30T19:51:35.635Z,12.80
2018-09-30T19:54:04.192Z,12.70
2018-09-30T19:56:32.718Z,12.70
2018-09-30T19:59:01.215Z,12.60
2018-09-30T20:01:29.759Z,12.60
2018-09-30T20:03:58.334Z,12.50
2018-09-30T20:06:26.866Z,12.40
2018-09-30T20:08:55.460Z,12.40
2018-09-30T20:11:23.971Z,12.40
2018-09-30T20:13:52.512Z,12.30
2018-09-30T20:16:21.063Z,12.30
2018-09-30T20:18:49.548Z,12.30
2018-09-30T20:21:18.021Z,12.20
2018-09-30T20:23:46.706Z,12.20
2018-09-30T20:26:15.310Z,12.20
2018-09-30T20:28:43.904Z,12.20
2018-09-30T20:31:12.367Z,12.10
2018-09-30T20:33:40.895Z,12.10
2018-09-30T20:36:10.591Z,12.10
2018-09-30T20:38:39.223Z,12.00
2018-09-30T20:41:07.758Z,12.00
2018-09-30T20:43:36.280Z,12.00
2018-09-30T20:46:04.893Z,11.90
2018-09-30T20:48:33.462Z,11.90
2018-09-30T20:51:01.963Z,11.90
2018-09-30T20:53:30.536Z,11.90
2018-09-30T20:55:59.099Z,11.90
2018-09-30T20:58:27.530Z,11.90
2018-09-30T21:00:56.139Z,11.80
2018-09-30T21:03:24.715Z,11.80
2018-09-30T21:06:29.998Z,11.80
2018-09-30T21:08:58.566Z,11.80
2018-09-30T21:11:27.151Z,11.80
2018-09-30T21:13:55.818Z,11.80
2018-09-30T21:16:24.538Z,11.80
2018-09-30T21:18:53.054Z,11.80
2018-09-30T21:21:21.708Z,11.80
2018-09-30T21:23:50.366Z,11.80
2018-09-30T21:26:18.876Z,11.80
2018-09-30T21:28:47.449Z,11.80
2018-09-30T21:31:15.966Z,11.80
2018-09-30T21:33:44.509Z,11.80
2018-09-30T21:36:13.128Z,11.80
2018-09-30T21:38:41.668Z,11.80
2018-09-30T21:41:10.190Z,11.80
2018-09-30T21:43:38.819Z,11.80
2018-09-30T21:46:07.462Z,11.70
2018-09-30T21:48:36.000Z,11.70
2018-09-30T21:51:04.563Z,11.70
2018-09-30T21:53:33.131Z,11.60
2018-09-30T21:56:01.626Z,11.60
2018-09-30T21:58:30.167Z,11.60
2018-09-30T22:01:00.300Z,11.60
2018-09-30T22:03:29.150Z,11.60
2018-09-30T22:05:57.827Z,11.60
2018-09-30T22:08:26.398Z,11.50
2018-09-30T22:10:54.966Z,11.50
2018-09-30T22:13:23.638Z,11.50
2018-09-30T22:15:52.183Z,11.50
2018-09-30T22:18:20.698Z,11.50
2018-09-30T22:20:49.402Z,11.50
2018-09-30T22:23:18.038Z,11.50
2018-09-30T22:25:46.618Z,11.50
2018-09-30T22:28:15.138Z,11.50
2018-09-30T22:30:43.618Z,11.50
2018-09-30T22:33:12.114Z,11.50
2018-09-30T22:35:40.594Z,11.50
2018-09-30T22:38:09.114Z,11.50
2018-09-30T22:40:37.658Z,11.50
2018-09-30T22:43:06.230Z,11.50
2018-09-30T22:45:34.827Z,11.50
2018-09-30T22:48:03.399Z,11.50
2018-09-30T22:50:32.047Z,11.50
2018-09-30T22:53:00.523Z,11.50
2018-09-30T22:55:29.090Z,11.50
2018-09-30T22:57:57.666Z,11.40
2018-09-30T23:00:26.418Z,11.40
2018-09-30T23:02:54.970Z,11.40
2018-09-30T23:05:23.526Z,11.40
2018-09-30T23:07:52.247Z,11.40
2018-09-30T23:10:20.730Z,11.30
2018-09-30T23:12:49.242Z,11.30
2018-09-30T23:15:17.827Z,11.30
2018-09-30T23:17:46.450Z,11.30
2018-09-30T23:20:14.983Z,11.30
2018-09-30T23:22:43.584Z,11.30
2018-09-30T23:25:12.071Z,11.30
2018-09-30T23:27:40.595Z,11.30
2018-09-30T23:30:09.218Z,11.30
2018-09-30T23:32:37.990Z,11.30
2018-09-30T23:35:06.601Z,11.30
2018-09-30T23:37:35.115Z,11.30
2018-09-30T23:40:03.738Z,11.30
2018-09-30T23:42:32.473Z,11.30
2018-09-30T23:45:01.004Z,11.20
2018-09-30T23:47:29.486Z,11.20
2018-09-30T23:49:58.022Z,11.20
2018-09-30T23:52:26.626Z,11.20
2018-09-30T23:54:55.154Z,11.10
2018-09-30T23:57:23.678Z,11.10
2018-09-30T23:59:52.258Z,11.10
